Highlands Peak, California Weather observations

Data are for observation ending at time listed.
 Day   Time    Ave.   Ave.  Ave.  Vector   Max.   Stn.    Total    Solar   Ave.  
  of    of     Air    Rel.  Wind   Wind    Wind   Baro.  Precip.   Rad.    Soil  
Year   Day     Temp.  Hum.  Speed  Dir.    Gust   Pres.                    Temp. 
2017   (PST)    F      %     mph   deg.    mph     mb.     in.     W/m2     F   
------------------------------------------------------------------------------
 293    0:00   52.8    97   10.3   258     16.7   928.2    0.00       0    69.8
 293    0:10   52.8    97   10.7   254     16.6   928.1    0.00       0    69.6
 293    0:20   52.6    97   11.9   245     17.4   928.0    0.01       0    69.5
 293    0:30   52.6    97   10.1   257     14.2   928.1    0.00       0    69.2
 293    0:40   52.4    97   10.6   262     16.4   928.2    0.00       0    68.9
 293    0:50   52.4    97    9.9   255     15.1   928.1    0.01       0    69.0
 293    1:00   52.4    97    9.7   254     16.7   928.1    0.00       0    69.1
 293    1:10   52.5    98   11.9   259     16.4   928.1    0.01       0    68.7
 293    1:20   52.6    98   14.8   265     20.2   928.0    0.01       0    68.3
 293    1:30   52.6    98   10.0   252     16.0   928.0    0.00       0    68.2
 293    1:40   52.6    98   12.1   244     17.1   927.8    0.02       0    68.0
 293    1:50   52.8    98   13.6   246     24.0   927.8    0.01       0    67.8
 293    2:00   52.9    98    9.0   252     17.0   927.7    0.02       0    67.7
 293    2:10   52.9    98   12.1   241     20.5   927.6    0.03       0    66.9
 293    2:20   52.5    98   10.9   253     17.0   927.7    0.01       0    66.3
 293    2:30   51.7    98   13.8   277     22.2   927.7    0.01       0    65.8
 293    2:40   50.6    98   15.8   298     25.6   927.7    0.01       0    65.4
 293    2:50   50.0    98   15.9   298     27.6   927.7    0.00       0    65.1
 293    3:00   49.9    98   13.0   297     22.0   928.0    0.00       0    65.2
 293    3:10   48.9    98   15.9   306     26.1   928.0    0.00       0    64.9
 293    3:20   48.1    98   13.9   312     25.1   928.0    0.00       0    64.6
 293    3:30   47.9    98   12.4   307     26.3   928.1    0.00       0    64.6
 293    3:40   47.8    97    8.6   331     14.2   928.0    0.00       0    64.5
 293    3:50   48.1    96    7.6   330     12.2   928.2    0.00       0    64.3
 293    4:00   48.2    94    9.6   319     15.6   928.1    0.00       0    64.2
 293    4:10   48.7    91    8.5   341     14.1   928.2    0.00       0    63.8
 293    4:20   48.9    88    6.6   332     14.5   928.2    0.00       0    63.6
 293    4:30   48.6    88    7.3   308     12.3   928.3    0.00       0    63.6
 293    4:40   48.5    86    5.8   330     10.7   928.5    0.00       0    63.5
 293    4:50   48.7    83    5.2   342     17.1   928.8    0.00       0    63.5
 293    5:00   48.3    78    9.5    13     17.2   928.8    0.00       0    63.0
 293    5:10   48.7    72    7.2   339     15.5   928.8    0.00       0    62.7
 293    5:20   48.2    74   10.3    23     21.9   928.6    0.00       0    62.4
 293    5:30   48.4    68   12.3    14     23.2   928.4    0.00       0    61.4
 293    5:40   48.1    69    9.1    14     23.2   928.8    0.00       0    61.3
 293    5:50   47.5    70   15.0    10     26.4   928.8    0.00       0    60.5
 293    6:00   47.6    67   11.9     1     30.3   929.3    0.00       0    59.8
 293    6:10   47.8    62   13.4    11     24.4   929.1    0.00       1    59.4
 293    6:20   48.0    61   13.3    10     27.5   929.1    0.00       6    58.7
 293    6:30   47.5    63   12.8    17     22.7   929.0    0.00      10    58.2
 293    6:40   47.1    65   10.6    18     22.1   929.1    0.00      21    58.1
 293    6:50   47.4    63   11.3    18     24.0   929.3    0.00      35    57.7
 293    7:00   47.7    60   13.8    29     28.4   929.3    0.00      52    57.3
 293    7:10   48.1    57    6.6   310     20.0   929.8    0.00      77    57.7
 293    7:20   48.4    54    6.7     5     18.4   930.0    0.00     114    58.1
 293    7:30   49.3    49    8.9    20     19.6   930.0    0.00     187    57.4
 293    7:40   49.4    51    7.7    15     19.5   930.2    0.00     205    57.6
 293    7:50   49.2    54    6.3   309     16.0   930.5    0.00     289    57.8
 293    8:00   49.9    50    4.3     0     12.6   930.6    0.00     320    57.6
 293    8:10   50.3    50    6.5   304     19.6   930.8    0.00     357    57.9
 293    8:20   49.4    55    9.7   290     18.5   931.1    0.00     398    57.9
 293    8:30   49.2    58    9.9   302     19.4   931.2    0.00     428    57.6
 293    8:40   49.2    63    7.1   276     10.6   931.0    0.00     464    57.8
 293    8:50   49.8    60    7.4   278     12.6   931.2    0.00     470    57.9
 293    9:00   49.9    61    7.4   290     13.3   931.2    0.00     532    58.0
 293    9:10   50.2    60    8.8   286     14.1   931.3    0.00     558    58.0
 293    9:20   50.5    57    9.3   293     14.4   931.2    0.00     518    58.0
 293    9:30   50.8    57    9.1   293     14.5   931.3    0.00     577    57.9
 293    9:40   51.1    58    9.3   290     14.5   931.2    0.00     627    57.9
 293    9:50   51.4    59    8.8   277     15.1   931.4    0.00     643    58.0
 293   10:00   50.9    61   10.9   279     15.3   931.6    0.00     659    58.1
 293   10:10   50.6    62   11.2   278     15.4   931.5    0.00     679    58.2
 293   10:20   50.7    64   10.5   263     14.0   931.6    0.00     697    58.4
 293   10:30   50.9    65    9.0   267     13.8   931.7    0.00     698    58.6
 293   10:40   51.2    65   10.4   265     15.1   931.7    0.00     716    58.8
 293   10:50   51.2    66   10.3   263     16.1   931.9    0.00     731    59.0
 293   11:00   51.3    66   12.6   260     17.1   931.9    0.00     745    59.3
 293   11:10   50.9    67   12.5   260     16.4   931.9    0.00     756    59.6
 293   11:20   50.9    67   12.4   259     18.2   931.9    0.00     757    59.8
 293   11:30   51.0    67   11.9   256     17.0   931.9    0.00     764    60.0
 293   11:40   51.3    67   10.3   255     14.5   931.8    0.00     760    60.2
 293   11:50   51.3    68   11.6   254     19.3   931.7    0.00     761    60.4
 293   12:00   50.6    72   13.4   259     18.3   931.6    0.00     759    60.6
 293   12:10   50.5    75   13.1   259     18.6   931.6    0.00     760    60.7
 293   12:20   50.1    75   16.3   262     22.3   931.5    0.00     757    60.9
 293   12:30   50.1    76   14.2   264     19.4   931.6    0.00     754    61.1
 293   12:40   50.2    78   13.5   264     19.0   931.4    0.00     746    61.3
 293   12:50   50.5    78   12.6   259     18.9   931.3    0.00     744    61.5
 293   13:00   50.5    77   14.4   266     20.2   931.3    0.00     727    61.7
 293   13:10   50.8    77   12.0   265     20.0   931.1    0.00     715    61.9
 293   13:20   51.4    76   11.8   264     19.6   931.0    0.00     684    62.1
 293   13:30   50.4    80   13.4   264     18.3   931.1    0.00     655    62.3
 293   13:40   50.7    80   12.2   263     20.8   931.1    0.00     613    62.5
 293   13:50   50.2    82   14.4   268     19.9   931.1    0.00     621    62.8
 293   14:00   50.4    82   11.1   263     17.2   930.9    0.00     598    63.0
 293   14:10   51.4    80    9.4   262     14.5   931.0    0.00     586    63.2
 293   14:20   51.9    78   10.4   261     15.8   931.1    0.00     544    63.4
 293   14:30   51.2    78   11.8   264     18.2   931.2    0.00     482    63.6
 293   14:40   51.2    78   10.4   269     18.9   931.2    0.00     498    63.8
 293   14:50   51.9    77    6.9   246     10.8   931.2    0.00     453    64.0
 293   15:00   52.1    76    6.8   253     11.4   931.2    0.00     443    64.1
 293   15:10   52.0    76    7.8   252     10.9   931.2    0.00     409    64.3
 293   15:20   52.0    76    8.9   266     14.6   931.3    0.00     375    64.4
 293   15:30   52.1    76    7.1   253     13.4   931.3    0.00     352    64.6
 293   15:40   52.1    75    7.9   266     13.4   931.2    0.00     334    64.7
 293   15:50   51.3    76    8.7   264     12.7   931.2    0.00     304    64.8
 293   16:00   51.2    76   10.1   262     13.4   931.2    0.00     304    65.0
 293   16:10   51.2    76    9.1   266     13.2   931.2    0.00     216    65.1
 293   16:20   49.6    79    7.8   273     12.2   931.4    0.00     115    65.2
 293   16:30   49.7    79    6.3   262     10.2   931.4    0.00     157    65.2
 293   16:40   49.8    80    7.5   266     11.1   931.5    0.00     114    65.3
 293   16:50   49.1    82    3.5   256      8.8   931.5    0.00     103    65.3
 293   17:00   49.5    81    2.3   218      3.7   931.5    0.00      72    65.4
 293   17:10   49.2    81    1.9   203      3.9   931.4    0.00      47    65.4
 293   17:20   48.8    82    1.3   207      3.0   931.4    0.00      27    65.4
 293   17:30   47.9    82    2.2   341      5.4   931.5    0.00       9    65.4
 293   17:40   47.3    84    1.7   346      3.7   931.6    0.00       3    65.3
 293   17:50   46.7    83    4.4   304      8.7   931.7    0.00       1    65.3
 293   18:00   47.1    78    7.1   287     11.2   931.7    0.00       0    65.2
 293   18:10   47.5    74    7.6   283     14.0   931.7    0.00       0    65.1
 293   18:20   47.4    72    7.8   295     13.4   931.7    0.00       0    64.9
 293   18:30   47.7    69    8.6   292     17.1   931.8    0.00       0    64.8
 293   18:40   47.7    69    9.6   291     13.6   932.1    0.00       0    64.6
 293   18:50   47.5    69    8.4   296     13.6   932.1    0.00       0    64.4
 293   19:00   47.4    68    6.9   302     11.8   932.1    0.00       0    64.2
 293   19:10   47.5    66    8.8   296     15.0   931.9    0.00       0    64.0
 293   19:20   47.2    66    6.2   277     13.0   931.9    0.00       0    64.0
 293   19:30   47.2    65    5.4   277     12.4   932.0    0.00       0    63.9
 293   19:40   47.6    61    4.5   333     15.5   932.1    0.00       0    63.8
 293   19:50   48.7    56    9.7    18     19.2   932.1    0.00       0    62.9
 293   20:00   48.9    53    5.5     6     16.2   932.2    0.00       0    62.7
 293   20:10   49.1    52    6.8     2     14.4   932.3    0.00       0    62.3
 293   20:20   49.3    49    6.5   349     14.2   932.2    0.00       0    62.0
 293   20:30   49.2    48    5.3   296     11.1   932.2    0.00       0    62.0
 293   20:40   49.1    48    9.2   295     16.2   932.3    0.00       0    62.0
 293   20:50   48.4    53    9.8   282     17.4   932.4    0.00       0    62.0
 293   21:00   48.5    50    8.2   292     16.4   932.5    0.00       0    61.8
 293   21:10   48.8    46    8.2   337     18.0   932.6    0.00       0    61.3
 293   21:20   49.6    40   11.1   356     16.4   932.6    0.00       0    60.5
 293   21:30   49.2    42    9.0   324     16.4   932.7    0.00       0    60.2
 293   21:40   48.6    45    4.8   310     11.1   932.7    0.00       0    60.5
 293   21:50   47.9    47    2.5   252     10.2   932.6    0.00       0    60.8
 293   22:00   48.0    46    6.2   305     13.4   932.7    0.00       0    60.7
 293   22:10   48.4    46    5.2   280     12.6   932.6    0.00       0    60.7
 293   22:20   47.8    48    6.8   276     14.0   932.6    0.00       0    60.6
 293   22:30   48.1    46    7.0   284     16.4   932.6    0.00       0    60.5
 293   22:40   49.9    35    4.5   321     14.2   932.6    0.00       0    60.0
 293   22:50   49.2    38    4.7   284     17.5   932.5    0.00       0    60.0
 293   23:00   49.3    35    4.6   163     14.9   932.3    0.00       0    60.2
 293   23:10   50.3    31    6.7     4     22.8   932.1    0.00       0    59.9
 293   23:20   50.2    33    6.8   280     20.8   932.2    0.00       0    59.5
 293   23:30   50.0    32    5.6   325     14.8   932.3    0.00       0    59.4
 293   23:40   49.1    39    3.8   269      8.8   932.5    0.00       0    59.6

Return to Highlands Peak graphs page.


Western Regional Climate Center,wrcc@dri.edu